Time;durP1;ratioP1;P1;durP2;ratioP2;P2;SDS_P1;SDS_P2;PMS_P1;PMS_P2;Temp;Humidity;BMP_temperature;BMP_pressure;BME280_temperature;BME280_humidity;BME280_pressure;Samples;Min_cycle;Max_cycle;Signal;HPM_P1;HPM_P2
2023/05/11 00:01:11;;;;;;;;;;;;;;;16.66;43.55;99640.66;4429557;32;34116;-81
2023/05/11 00:03:40;;;;;;;;;;;;;;;16.73;43.35;99646.50;4428052;32;33525;-84
2023/05/11 00:06:08;;;;;;;;;;;;;;;16.49;44.28;99646.53;4435849;32;32895;-82
2023/05/11 00:08:37;;;;;;;;;;;;;;;16.17;44.82;99643.37;4419080;32;33648;-83
2023/05/11 00:11:07;;;;;;;;;;;;;;;16.27;44.27;99641.25;4418170;32;35076;-82
2023/05/11 00:13:35;;;;;;;;;;;;;;;16.59;43.51;99640.03;4430325;32;33658;-81
2023/05/11 00:16:04;;;;;;;;;;;;;;;16.61;43.52;99635.59;4435558;32;33590;-82
2023/05/11 00:18:34;;;;;;;;;;;;;;;16.55;44.23;99635.84;4427706;32;34317;-82
2023/05/11 00:21:02;;;;;;;;;;;;;;;16.45;44.44;99639.69;4420105;32;34327;-83
2023/05/11 00:23:31;;;;;;;;;;;;;;;16.55;43.89;99629.72;4425258;32;34453;-84
2023/05/11 00:25:59;;;;;;;;;;;;;;;16.40;44.11;99637.25;4416109;32;33508;-81
2023/05/11 00:28:28;;;;;;;;;;;;;;;16.42;44.09;99638.06;4423592;32;35178;-84
2023/05/11 00:30:56;;;;;;;;;;;;;;;16.39;44.63;99640.78;4412135;32;34728;-81
2023/05/11 00:33:25;;;;;;;;;;;;;;;16.48;44.43;99639.59;4414301;32;34074;-83
2023/05/11 00:35:55;;;;;;;;;;;;;;;16.46;44.23;99633.56;4414363;32;33345;-82
2023/05/11 00:38:24;;;;;;;;;;;;;;;16.42;44.20;99639.81;4420059;32;34042;-81
2023/05/11 00:40:52;;;;;;;;;;;;;;;16.40;44.39;99636.41;4415294;32;34971;-81
2023/05/11 00:43:21;;;;;;;;;;;;;;;16.31;44.55;99627.16;4415176;32;35273;-82
2023/05/11 00:45:51;;;;;;;;;;;;;;;16.27;44.78;99628.16;4414759;32;32866;-82
2023/05/11 00:48:20;;;;;;;;;;;;;;;15.35;46.03;99624.41;4416999;32;33192;-84
2023/05/11 00:50:48;;;;;;;;;;;;;;;15.94;45.30;99618.03;4419667;32;34631;-82
2023/05/11 00:53:18;;;;;;;;;;;;;;;15.81;45.44;99631.62;4414472;32;35448;-82
2023/05/11 00:55:46;;;;;;;;;;;;;;;15.97;45.42;99630.13;4427300;32;33509;-82
2023/05/11 00:58:15;;;;;;;;;;;;;;;16.00;45.21;99628.28;4429739;32;34672;-82
2023/05/11 01:00:46;;;;;;;;;;;;;;;16.30;44.59;99628.03;4434343;32;34111;-82
2023/05/11 01:03:15;;;;;;;;;;;;;;;16.36;44.69;99625.22;4423401;32;34433;-84
2023/05/11 01:05:44;;;;;;;;;;;;;;;16.20;45.04;99624.91;4420623;32;32716;-83
2023/05/11 01:08:13;;;;;;;;;;;;;;;16.32;44.91;99622.75;4421558;32;34169;-83
2023/05/11 01:10:48;;;;;;;;;;;;;;;16.43;44.87;99620.59;4425083;32;34361;-81
2023/05/11 01:13:17;;;;;;;;;;;;;;;16.27;45.33;99620.31;4422718;32;34101;-82
2023/05/11 01:15:50;;;;;;;;;;;;;;;16.12;45.96;99620.91;4418116;32;33174;-82
2023/05/11 01:18:20;;;;;;;;;;;;;;;16.31;45.97;99621.03;4413955;32;33984;-83
2023/05/11 01:20:53;;;;;;;;;;;;;;;16.19;46.32;99620.63;4415819;32;34874;-82
2023/05/11 01:23:39;;;;;;;;;;;;;;;16.21;46.29;99620.53;4418697;32;33519;-82
2023/05/11 01:26:11;;;;;;;;;;;;;;;16.35;45.44;99615.62;4421051;32;34042;-83
2023/05/11 01:29:04;;;;;;;;;;;;;;;16.36;45.45;99614.75;4426692;32;33753;-83
2023/05/11 01:31:34;;;;;;;;;;;;;;;16.18;46.08;99613.66;4403943;32;34932;-83
2023/05/11 01:34:03;;;;;;;;;;;;;;;16.36;45.71;99619.13;4413765;32;34937;-83
2023/05/11 01:36:33;;;;;;;;;;;;;;;16.18;45.86;99611.03;4424852;32;33504;-83
2023/05/11 01:39:07;;;;;;;;;;;;;;;16.34;45.69;99615.72;4434708;32;33873;-82
2023/05/11 01:41:37;;;;;;;;;;;;;;;16.33;45.93;99616.59;4423618;32;34137;-82
2023/05/11 01:44:06;;;;;;;;;;;;;;;16.34;46.15;99621.78;4429064;32;34966;-82
2023/05/11 01:46:39;;;;;;;;;;;;;;;16.17;46.46;99617.19;4429147;32;34269;-81
2023/05/11 01:49:07;;;;;;;;;;;;;;;15.76;47.49;99613.47;4434715;32;33929;-84
2023/05/11 01:51:36;;;;;;;;;;;;;;;15.87;47.01;99608.69;4420449;32;34054;-83
2023/05/11 01:54:06;;;;;;;;;;;;;;;16.09;46.41;99615.75;4413561;32;34801;-82
2023/05/11 01:56:35;;;;;;;;;;;;;;;16.15;46.11;99608.53;4413912;32;33887;-84
2023/05/11 01:59:03;;;;;;;;;;;;;;;16.25;46.01;99613.44;4420428;32;34739;-82
2023/05/11 02:01:32;;;;;;;;;;;;;;;16.17;46.35;99609.34;4433635;32;35124;-82
2023/05/11 02:04:05;;;;;;;;;;;;;;;15.79;46.99;99601.12;4414003;32;33420;-81
2023/05/11 02:06:34;;;;;;;;;;;;;;;15.95;46.72;99604.06;4413626;32;34227;-82
2023/05/11 02:09:05;;;;;;;;;;;;;;;16.05;46.31;99604.56;4426974;32;34836;-82
2023/05/11 02:11:34;;;;;;;;;;;;;;;15.89;46.64;99599.03;4432022;32;33719;-83
2023/05/11 02:14:02;;;;;;;;;;;;;;;15.83;46.98;99603.66;4414404;32;33953;-84
2023/05/11 02:16:31;;;;;;;;;;;;;;;15.93;46.62;99598.00;4415868;32;32078;-83
2023/05/11 02:19:00;;;;;;;;;;;;;;;15.85;46.71;99601.81;4415996;32;34292;-82
2023/05/11 02:21:30;;;;;;;;;;;;;;;15.74;47.07;99603.06;4433738;32;33699;-83
2023/05/11 02:23:59;;;;;;;;;;;;;;;15.47;47.71;99604.00;4428087;32;33565;-83
2023/05/11 02:26:30;;;;;;;;;;;;;;;15.89;47.12;99599.03;4426829;32;33676;-82
2023/05/11 02:28:59;;;;;;;;;;;;;;;15.94;46.54;99593.62;4429084;32;33822;-84
2023/05/11 02:31:30;;;;;;;;;;;;;;;16.26;46.04;99596.81;4415364;32;33937;-84
2023/05/11 02:34:02;;;;;;;;;;;;;;;16.17;46.21;99595.41;4424727;32;34563;-83
2023/05/11 02:36:32;;;;;;;;;;;;;;;15.50;47.33;99591.66;4429902;32;34336;-84
2023/05/11 02:39:02;;;;;;;;;;;;;;;15.59;47.38;99593.12;4419576;32;33784;-82
2023/05/11 02:41:31;;;;;;;;;;;;;;;15.80;46.87;99591.50;4429479;32;33310;-83
2023/05/11 02:44:01;;;;;;;;;;;;;;;16.17;45.90;99591.03;4426444;32;34681;-83
2023/05/11 02:46:33;;;;;;;;;;;;;;;15.95;46.51;99587.50;4422511;32;32737;-82
2023/05/11 02:49:03;;;;;;;;;;;;;;;16.04;46.62;99581.06;4413810;32;33960;-83
2023/05/11 02:51:36;;;;;;;;;;;;;;;16.05;46.47;99580.16;4415767;32;33880;-82
2023/05/11 02:54:05;;;;;;;;;;;;;;;15.77;47.17;99581.16;4415197;32;33989;-81
2023/05/11 02:56:35;;;;;;;;;;;;;;;15.85;46.80;99580.88;4422304;32;33433;-81
2023/05/11 02:59:03;;;;;;;;;;;;;;;15.56;47.62;99581.00;4432879;32;34330;-82
2023/05/11 03:01:31;;;;;;;;;;;;;;;15.77;46.64;99576.78;4421610;32;33580;-83
2023/05/11 03:04:00;;;;;;;;;;;;;;;15.63;47.36;99579.00;4417809;32;35601;-82
2023/05/11 03:06:30;;;;;;;;;;;;;;;15.38;47.85;99579.03;4419824;32;34906;-81
2023/05/11 03:09:00;;;;;;;;;;;;;;;15.45;47.65;99580.53;4415813;32;33810;-84
2023/05/11 03:11:31;;;;;;;;;;;;;;;15.40;47.55;99579.84;4431180;32;36211;-82
2023/05/11 03:14:01;;;;;;;;;;;;;;;15.27;47.87;99589.87;4429967;32;34032;-82
2023/05/11 03:16:30;;;;;;;;;;;;;;;15.34;47.45;99590.47;4430823;32;33623;-82
2023/05/11 03:18:58;;;;;;;;;;;;;;;15.23;47.82;99587.41;4435020;32;33700;-83
2023/05/11 03:21:27;;;;;;;;;;;;;;;15.20;47.84;99584.88;4430068;32;34946;-81
2023/05/11 03:23:56;;;;;;;;;;;;;;;15.02;48.23;99587.19;4425201;32;34158;-84
2023/05/11 03:26:25;;;;;;;;;;;;;;;15.21;47.88;99592.66;4415310;32;34061;-83
2023/05/11 03:28:55;;;;;;;;;;;;;;;15.17;48.10;99591.06;4420986;32;33754;-82
2023/05/11 03:31:24;;;;;;;;;;;;;;;15.14;48.18;99594.63;4429573;32;34858;-83
2023/05/11 03:33:52;;;;;;;;;;;;;;;15.19;47.89;99597.09;4430713;32;35690;-82
2023/05/11 03:36:21;;;;;;;;;;;;;;;15.28;47.91;99596.78;4428975;32;36038;-82
2023/05/11 03:38:51;;;;;;;;;;;;;;;15.25;48.03;99590.81;4430440;32;34938;-82
2023/05/11 03:41:21;;;;;;;;;;;;;;;15.08;48.36;99588.78;4427316;32;34437;-81
2023/05/11 03:43:51;;;;;;;;;;;;;;;15.17;48.21;99598.06;4414834;32;33840;-82
2023/05/11 03:46:21;;;;;;;;;;;;;;;15.21;48.21;99592.66;4429507;32;33601;-82
2023/05/11 03:48:49;;;;;;;;;;;;;;;15.03;48.85;99596.75;4422968;32;33877;-83
2023/05/11 03:51:18;;;;;;;;;;;;;;;15.06;48.77;99595.81;4426374;32;34672;-82
2023/05/11 03:53:47;;;;;;;;;;;;;;;15.01;49.00;99595.09;4419012;32;35072;-82
2023/05/11 03:56:17;;;;;;;;;;;;;;;14.92;49.42;99597.09;4415393;32;33913;-84
2023/05/11 03:58:45;;;;;;;;;;;;;;;14.88;49.49;99599.84;4416493;32;33509;-82
2023/05/11 04:01:15;;;;;;;;;;;;;;;15.03;49.26;99599.38;4426380;32;34269;-81
2023/05/11 04:03:47;;;;;;;;;;;;;;;14.96;49.39;99600.47;4429471;32;34390;-82
2023/05/11 04:06:16;;;;;;;;;;;;;;;15.04;49.05;99595.00;4414580;32;33562;-83
2023/05/11 04:08:47;;;;;;;;;;;;;;;14.93;49.32;99601.44;4416955;32;33990;-83
2023/05/11 04:11:15;;;;;;;;;;;;;;;14.46;50.31;99598.50;4417452;32;33905;-83
2023/05/11 04:13:43;;;;;;;;;;;;;;;14.68;50.35;99603.09;4422081;32;33898;-82
2023/05/11 04:16:12;;;;;;;;;;;;;;;14.87;49.88;99598.16;4417089;32;33473;-82
2023/05/11 04:18:42;;;;;;;;;;;;;;;14.80;49.88;99605.31;4429274;32;33662;-82
2023/05/11 04:21:11;;;;;;;;;;;;;;;14.51;50.21;99603.59;4427350;32;32858;-82
2023/05/11 04:23:42;;;;;;;;;;;;;;;14.68;50.13;99603.09;4428272;32;34805;-82
2023/05/11 04:26:10;;;;;;;;;;;;;;;14.68;49.56;99609.19;4419968;32;33843;-82
2023/05/11 04:28:39;;;;;;;;;;;;;;;14.98;49.27;99614.34;4426477;32;33835;-84
2023/05/11 04:31:09;;;;;;;;;;;;;;;15.00;48.86;99611.66;4422595;32;33742;-83
2023/05/11 04:33:37;;;;;;;;;;;;;;;14.74;49.11;99613.37;4418696;32;33530;-83
2023/05/11 04:36:10;;;;;;;;;;;;;;;14.66;49.49;99617.97;4431587;32;34303;-82
2023/05/11 04:38:41;;;;;;;;;;;;;;;14.78;49.67;99614.97;4417868;32;34205;-83
2023/05/11 04:41:10;;;;;;;;;;;;;;;14.36;50.20;99622.34;4414393;32;33370;-81
2023/05/11 04:43:39;;;;;;;;;;;;;;;14.72;49.42;99615.19;4422781;32;34061;-82
2023/05/11 04:46:10;;;;;;;;;;;;;;;14.65;49.40;99624.94;4428694;32;33728;-82
2023/05/11 04:48:39;;;;;;;;;;;;;;;14.47;49.91;99617.63;4414419;32;34530;-83
2023/05/11 04:51:07;;;;;;;;;;;;;;;15.30;48.59;99620.28;4412672;32;34232;-83
2023/05/11 04:53:40;;;;;;;;;;;;;;;16.26;46.47;99626.47;4413574;32;34247;-82
2023/05/11 04:56:10;;;;;;;;;;;;;;;16.63;45.07;99623.28;4413349;32;33341;-83
2023/05/11 04:58:39;;;;;;;;;;;;;;;17.09;43.33;99625.88;4426850;32;34452;-82
2023/05/11 05:01:07;;;;;;;;;;;;;;;17.17;43.08;99625.56;4429114;32;35027;-83
2023/05/11 05:03:36;;;;;;;;;;;;;;;16.93;44.33;99633.50;4428889;32;34148;-83
2023/05/11 05:06:07;;;;;;;;;;;;;;;16.93;44.22;99630.03;4413883;32;33494;-83
2023/05/11 05:08:37;;;;;;;;;;;;;;;17.44;43.64;99631.41;4420346;32;34974;-82
2023/05/11 05:11:06;;;;;;;;;;;;;;;17.66;42.62;99632.22;4427960;32;33830;-82
2023/05/11 05:13:36;;;;;;;;;;;;;;;17.13;43.88;99627.47;4427405;32;34090;-82
2023/05/11 05:16:05;;;;;;;;;;;;;;;17.79;42.61;99632.53;4429773;32;32805;-83
2023/05/11 05:18:33;;;;;;;;;;;;;;;17.32;43.42;99626.69;4428258;32;34623;-82
2023/05/11 05:21:02;;;;;;;;;;;;;;;17.38;43.22;99627.28;4434818;32;34136;-82
2023/05/11 05:23:33;;;;;;;;;;;;;;;17.15;43.68;99632.63;4419879;32;34698;-82
2023/05/11 05:26:02;;;;;;;;;;;;;;;17.40;43.18;99635.09;4424024;32;34377;-81
2023/05/11 05:28:34;;;;;;;;;;;;;;;17.39;43.30;99639.47;4415898;32;33480;-83
2023/05/11 05:31:04;;;;;;;;;;;;;;;16.91;43.56;99640.56;4426805;32;33503;-83
2023/05/11 05:33:37;;;;;;;;;;;;;;;17.14;43.18;99636.16;4411322;32;34420;-82
2023/05/11 05:36:06;;;;;;;;;;;;;;;17.48;42.61;99633.84;4418824;32;34853;-82
2023/05/11 05:38:34;;;;;;;;;;;;;;;17.56;40.30;99640.53;4416486;32;33807;-82
2023/05/11 05:41:02;;;;;;;;;;;;;;;17.76;39.68;99648.41;4412746;32;33862;-82
2023/05/11 05:43:33;;;;;;;;;;;;;;;18.33;39.44;99645.88;4420395;32;34491;-82
2023/05/11 05:46:01;;;;;;;;;;;;;;;17.98;39.10;99648.34;4417182;32;32833;-80
2023/05/11 05:48:30;;;;;;;;;;;;;;;17.87;39.33;99646.19;4414311;32;33522;-81
2023/05/11 05:50:59;;;;;;;;;;;;;;;17.61;40.36;99654.28;4422602;32;34333;-81
2023/05/11 05:53:28;;;;;;;;;;;;;;;17.55;40.03;99655.41;4429999;32;33911;-81
2023/05/11 05:55:56;;;;;;;;;;;;;;;17.22;39.49;99652.44;4416355;32;34185;-81
2023/05/11 05:58:25;;;;;;;;;;;;;;;17.05;40.49;99656.56;4420485;32;33986;-80
2023/05/11 06:00:55;;;;;;;;;;;;;;;17.06;40.80;99653.06;4420258;32;33884;-82
2023/05/11 06:03:24;;;;;;;;;;;;;;;16.82;40.90;99648.81;4425878;32;33351;-81
2023/05/11 06:05:57;;;;;;;;;;;;;;;16.69;41.20;99647.53;4428667;32;33636;-81
2023/05/11 06:08:25;;;;;;;;;;;;;;;17.03;40.96;99644.44;4420408;32;33840;-81
2023/05/11 06:10:54;;;;;;;;;;;;;;;16.89;41.31;99649.38;4418204;32;34951;-81
2023/05/11 06:13:22;;;;;;;;;;;;;;;16.23;42.41;99649.28;4417059;32;35193;-81
2023/05/11 06:15:51;;;;;;;;;;;;;;;16.19;43.17;99651.16;4426482;32;33267;-79
2023/05/11 06:18:21;;;;;;;;;;;;;;;16.78;42.88;99650.69;4421171;32;33926;-81
2023/05/11 06:20:50;;;;;;;;;;;;;;;16.52;43.36;99651.66;4417896;32;36200;-81
2023/05/11 06:23:22;;;;;;;;;;;;;;;16.62;43.16;99647.78;4418088;32;34081;-79
2023/05/11 06:25:50;;;;;;;;;;;;;;;16.57;43.25;99651.47;4425897;32;34355;-81
2023/05/11 06:28:23;;;;;;;;;;;;;;;16.82;42.88;99651.44;4420532;32;34693;-81
2023/05/11 06:30:52;;;;;;;;;;;;;;;16.91;42.95;99651.03;4419879;32;34065;-82
2023/05/11 06:33:22;;;;;;;;;;;;;;;16.93;42.64;99658.84;4415930;32;33675;-81
2023/05/11 06:35:52;;;;;;;;;;;;;;;16.64;43.15;99645.94;4424665;32;34161;-80
2023/05/11 06:38:22;;;;;;;;;;;;;;;16.61;43.83;99651.31;4430393;32;34598;-81
2023/05/11 06:40:51;;;;;;;;;;;;;;;16.31;44.13;99649.84;4416326;32;34248;-82
2023/05/11 06:43:20;;;;;;;;;;;;;;;16.94;43.13;99650.94;4419114;32;33964;-81
2023/05/11 06:45:49;;;;;;;;;;;;;;;16.84;43.64;99654.81;4419455;32;33417;-80
2023/05/11 06:48:18;;;;;;;;;;;;;;;16.69;43.04;99643.13;4424899;32;33887;-81
2023/05/11 06:50:48;;;;;;;;;;;;;;;16.67;43.14;99638.88;4418662;32;34850;-79
2023/05/11 06:53:17;;;;;;;;;;;;;;;16.84;43.83;99639.09;4419617;32;34000;-81
2023/05/11 06:55:46;;;;;;;;;;;;;;;16.38;44.13;99644.34;4419357;32;32878;-80
2023/05/11 06:58:15;;;;;;;;;;;;;;;16.62;44.41;99639.94;4423620;32;34518;-81
2023/05/11 07:00:45;;;;;;;;;;;;;;;16.84;43.21;99642.59;4421717;32;34390;-82
2023/05/11 07:03:14;;;;;;;;;;;;;;;16.72;43.54;99642.16;4414961;32;34648;-80
2023/05/11 07:05:43;;;;;;;;;;;;;;;16.93;43.17;99641.34;4417382;32;33563;-81
2023/05/11 07:08:13;;;;;;;;;;;;;;;16.50;44.42;99642.16;4418707;32;33693;-81
2023/05/11 07:10:41;;;;;;;;;;;;;;;17.21;43.29;99633.22;4435761;32;34297;-80
2023/05/11 07:13:10;;;;;;;;;;;;;;;17.12;43.09;99632.75;4430635;32;34926;-81
2023/05/11 07:15:38;;;;;;;;;;;;;;;16.92;43.51;99638.81;4420022;32;33485;-81
2023/05/11 07:18:09;;;;;;;;;;;;;;;17.33;43.37;99626.63;4415725;32;34263;-81
2023/05/11 07:20:39;;;;;;;;;;;;;;;17.36;41.53;99636.97;4426042;32;35018;-81
2023/05/11 07:23:08;;;;;;;;;;;;;;;17.53;42.60;99638.03;4425875;32;34728;-81
2023/05/11 07:25:38;;;;;;;;;;;;;;;17.26;41.65;99633.88;4421019;32;33575;-80
2023/05/11 07:28:06;;;;;;;;;;;;;;;17.35;41.12;99627.41;4423006;32;35956;-81
2023/05/11 07:30:35;;;;;;;;;;;;;;;16.96;41.75;99632.50;4421098;32;33921;-81
2023/05/11 07:33:03;;;;;;;;;;;;;;;17.09;41.75;99631.12;4435999;32;35091;-81
2023/05/11 07:35:32;;;;;;;;;;;;;;;17.77;40.36;99629.09;4414926;32;32010;-81
2023/05/11 07:38:00;;;;;;;;;;;;;;;17.75;40.58;99630.94;4425016;32;34440;-82
2023/05/11 07:40:32;;;;;;;;;;;;;;;17.77;40.44;99636.97;4422506;32;33312;-80
2023/05/11 07:43:02;;;;;;;;;;;;;;;17.77;40.74;99630.88;4426117;32;34992;-82
2023/05/11 07:45:33;;;;;;;;;;;;;;;18.02;41.33;99626.25;4417657;32;34026;-82
2023/05/11 07:48:01;;;;;;;;;;;;;;;18.66;38.74;99622.47;4412673;32;34401;-81
2023/05/11 07:50:30;;;;;;;;;;;;;;;17.97;39.32;99623.00;4427302;32;35034;-82
2023/05/11 07:52:59;;;;;;;;;;;;;;;17.76;40.20;99629.16;4414241;32;33954;-81
2023/05/11 07:55:30;;;;;;;;;;;;;;;17.89;40.06;99631.22;4420161;32;32933;-80
2023/05/11 07:58:02;;;;;;;;;;;;;;;18.52;40.74;99630.13;4414381;32;33816;-82
2023/05/11 08:00:31;;;;;;;;;;;;;;;18.59;38.76;99621.03;4416937;32;33710;-82
2023/05/11 08:03:00;;;;;;;;;;;;;;;18.78;38.85;99635.97;4427753;32;34651;-82
2023/05/11 08:05:28;;;;;;;;;;;;;;;19.00;37.94;99628.75;4435045;32;33426;-82
2023/05/11 08:07:57;;;;;;;;;;;;;;;19.19;37.61;99628.69;4430441;32;33523;-82
2023/05/11 08:10:25;;;;;;;;;;;;;;;19.26;37.96;99626.63;4429222;32;34485;-81
2023/05/11 08:12:53;;;;;;;;;;;;;;;18.80;37.35;99623.59;4430458;32;35117;-82
2023/05/11 08:15:23;;;;;;;;;;;;;;;18.55;37.00;99614.22;4430262;32;33220;-80
2023/05/11 08:17:52;;;;;;;;;;;;;;;18.88;38.04;99624.09;4435723;32;35160;-82
2023/05/11 08:20:21;;;;;;;;;;;;;;;19.40;36.37;99617.09;4429280;32;33790;-81
2023/05/11 08:22:49;;;;;;;;;;;;;;;19.75;38.04;99617.09;4430265;32;34890;-82
2023/05/11 08:25:18;;;;;;;;;;;;;;;20.03;36.33;99615.66;4425908;32;33718;-82
2023/05/11 08:27:47;;;;;;;;;;;;;;;18.93;37.46;99612.41;4425854;32;33846;-81
2023/05/11 08:30:15;;;;;;;;;;;;;;;19.63;36.68;99609.81;4429734;32;34334;-81
2023/05/11 08:32:45;;;;;;;;;;;;;;;19.19;37.89;99610.28;4430019;32;34133;-80
2023/05/11 08:35:29;;;;;;;;;;;;;;;19.80;36.42;99606.31;4429102;32;34412;-81
2023/05/11 08:37:57;;;;;;;;;;;;;;;20.14;35.87;99601.88;4429626;32;33726;-81
2023/05/11 08:40:27;;;;;;;;;;;;;;;20.07;36.85;99603.16;4435343;32;33740;-80
2023/05/11 08:42:55;;;;;;;;;;;;;;;19.46;36.69;99600.16;4429999;32;34507;-82
2023/05/11 08:45:24;;;;;;;;;;;;;;;19.21;36.52;99589.16;4429010;32;33386;-81
2023/05/11 08:47:54;;;;;;;;;;;;;;;19.28;35.92;99591.44;4430082;32;33638;-81
2023/05/11 08:50:26;;;;;;;;;;;;;;;19.12;36.44;99591.34;4435614;32;35026;-81
2023/05/11 08:52:54;;;;;;;;;;;;;;;19.84;35.54;99586.81;4429608;32;35043;-82
2023/05/11 08:55:23;;;;;;;;;;;;;;;19.83;36.27;99593.00;4426474;32;33374;-82
2023/05/11 08:57:54;;;;;;;;;;;;;;;19.69;35.97;99592.88;4417138;32;33351;-81
2023/05/11 09:00:22;;;;;;;;;;;;;;;20.59;35.21;99584.53;4425931;32;32736;-82
2023/05/11 09:02:52;;;;;;;;;;;;;;;20.60;35.45;99584.41;4444243;32;33840;-81
2023/05/11 09:05:21;;;;;;;;;;;;;;;20.56;34.93;99572.38;4445457;32;33581;-82
2023/05/11 09:07:52;;;;;;;;;;;;;;;20.51;34.59;99576.16;4414381;32;34554;-82
2023/05/11 09:10:21;;;;;;;;;;;;;;;20.34;33.55;99570.03;4413581;32;33764;-80
2023/05/11 09:12:51;;;;;;;;;;;;;;;20.99;33.72;99579.59;4421521;32;34407;-81
2023/05/11 09:15:20;;;;;;;;;;;;;;;21.24;33.54;99573.75;4424174;32;34358;-81
2023/05/11 09:17:49;;;;;;;;;;;;;;;20.82;33.43;99568.22;4415946;32;34822;-80
2023/05/11 09:20:17;;;;;;;;;;;;;;;20.50;34.69;99571.81;4415731;32;33623;-80
2023/05/11 09:22:48;;;;;;;;;;;;;;;20.85;32.93;99572.47;4422313;32;34020;-81
2023/05/11 09:25:20;;;;;;;;;;;;;;;21.47;33.08;99569.75;4433013;32;33609;-81
2023/05/11 09:27:51;;;;;;;;;;;;;;;20.81;32.42;99560.44;4425477;32;33689;-82
2023/05/11 09:30:20;;;;;;;;;;;;;;;20.93;32.51;99557.09;4427042;32;33940;-80
2023/05/11 09:32:54;;;;;;;;;;;;;;;20.69;33.79;99553.22;4431526;32;34015;-82
2023/05/11 09:35:23;;;;;;;;;;;;;;;21.42;32.75;99558.63;4436703;32;33077;-82
2023/05/11 09:38:03;;;;;;;;;;;;;;;20.95;33.49;99547.28;4431374;32;33741;-81
2023/05/11 09:40:32;;;;;;;;;;;;;;;21.06;32.86;99550.13;4428347;32;33896;-81
2023/05/11 09:43:02;;;;;;;;;;;;;;;20.73;31.64;99552.09;4431370;32;33416;-81
2023/05/11 09:45:34;;;;;;;;;;;;;;;21.12;32.44;99546.31;4431581;32;33029;-80
2023/05/11 09:48:03;;;;;;;;;;;;;;;20.90;32.38;99554.62;4436626;32;33708;-80
2023/05/11 09:50:32;;;;;;;;;;;;;;;21.19;29.84;99558.19;4423510;32;34376;-81
2023/05/11 09:53:01;;;;;;;;;;;;;;;21.35;29.13;99546.72;4415560;32;34157;-82
2023/05/11 09:55:31;;;;;;;;;;;;;;;20.77;30.08;99538.66;4421396;32;34144;-82
2023/05/11 09:57:59;;;;;;;;;;;;;;;21.08;29.75;99547.41;4421067;32;33677;-82
2023/05/11 10:00:28;;;;;;;;;;;;;;;21.19;29.89;99546.75;4418874;32;35077;-82
2023/05/11 10:03:00;;;;;;;;;;;;;;;21.68;29.70;99541.22;4431039;32;34083;-81
2023/05/11 10:05:30;;;;;;;;;;;;;;;21.77;29.81;99540.66;4431040;32;33470;-81
2023/05/11 10:07:59;;;;;;;;;;;;;;;21.99;29.60;99540.16;4430356;32;34435;-81
2023/05/11 10:10:29;;;;;;;;;;;;;;;22.56;29.62;99525.97;4422259;32;34280;-81
2023/05/11 10:12:59;;;;;;;;;;;;;;;22.07;29.19;99529.94;4423611;32;34397;-81
2023/05/11 10:15:29;;;;;;;;;;;;;;;22.37;28.91;99529.84;4419070;32;32653;-81
2023/05/11 10:18:00;;;;;;;;;;;;;;;22.49;27.85;99524.69;4417165;32;33878;-80
2023/05/11 10:20:29;;;;;;;;;;;;;;;22.71;27.57;99521.47;4423209;32;33478;-80
2023/05/11 10:22:57;;;;;;;;;;;;;;;23.22;27.70;99521.63;4421578;32;35025;-82
2023/05/11 10:25:26;;;;;;;;;;;;;;;23.05;27.66;99521.87;4423799;32;34249;-82
2023/05/11 10:27:55;;;;;;;;;;;;;;;22.08;27.77;99512.28;4425764;32;33855;-80
2023/05/11 10:30:24;;;;;;;;;;;;;;;22.36;28.59;99512.25;4416686;32;33910;-80
2023/05/11 10:32:53;;;;;;;;;;;;;;;21.65;28.24;99525.53;4431819;32;34179;-80
2023/05/11 10:35:21;;;;;;;;;;;;;;;21.74;27.98;99512.63;4416868;32;33692;-80
2023/05/11 10:37:52;;;;;;;;;;;;;;;21.35;29.10;99512.41;4413529;32;34212;-82
2023/05/11 10:40:23;;;;;;;;;;;;;;;21.21;29.40;99505.31;4414792;32;34953;-81
2023/05/11 10:43:04;;;;;;;;;;;;;;;20.96;30.23;99509.41;4420998;32;34250;-80
2023/05/11 10:45:38;;;;;;;;;;;;;;;21.64;30.49;99513.31;4416320;32;33301;-82
2023/05/11 10:48:21;;;;;;;;;;;;;;;21.21;30.27;99505.31;4413191;32;33583;-80
2023/05/11 10:51:17;;;;;;;;;;;;;;;21.35;30.47;99512.41;4423617;32;35348;-81
2023/05/11 10:53:50;;;;;;;;;;;;;;;21.94;30.17;99511.41;4392182;32;34665;-82
2023/05/11 10:56:33;;;;;;;;;;;;;;;22.84;29.16;99506.50;4391141;32;33004;-81
2023/05/11 10:59:13;;;;;;;;;;;;;;;22.91;28.82;99517.53;4388049;32;34733;-81
2023/05/11 11:01:45;;;;;;;;;;;;;;;22.61;28.71;99502.72;4387862;32;33262;-81
2023/05/11 11:04:14;;;;;;;;;;;;;;;22.56;28.84;99500.38;4381878;32;33565;-81
2023/05/11 11:06:47;;;;;;;;;;;;;;;22.99;29.27;99504.66;4392907;32;34271;-80
2023/05/11 11:09:16;;;;;;;;;;;;;;;22.49;28.71;99493.78;4393577;32;34032;-81
2023/05/11 11:11:45;;;;;;;;;;;;;;;22.57;28.57;99488.88;4394371;32;34752;-82
2023/05/11 11:14:17;;;;;;;;;;;;;;;22.73;28.08;99490.47;4378542;32;32942;-81
2023/05/11 11:17:09;;;;;;;;;;;;;;;21.96;29.35;99490.16;4384565;32;34024;-80
2023/05/11 11:19:39;;;;;;;;;;;;;;;21.33;28.24;99477.34;4381955;32;33119;-80
2023/05/11 11:22:37;;;;;;;;;;;;;;;21.18;29.27;99482.63;4381018;32;33464;-80
2023/05/11 11:25:07;;;;;;;;;;;;;;;21.06;28.63;99492.09;4387822;32;34404;-81
2023/05/11 11:27:55;;;;;;;;;;;;;;;21.64;27.74;99489.53;4393039;32;32555;-81
2023/05/11 11:30:25;;;;;;;;;;;;;;;21.19;28.90;99492.25;4407762;32;33766;-81
2023/05/11 11:32:54;;;;;;;;;;;;;;;21.94;27.86;99478.84;4423906;32;34565;-81
2023/05/11 11:35:45;;;;;;;;;;;;;;;22.69;28.67;99478.41;4421513;32;34455;-81
2023/05/11 11:38:16;;;;;;;;;;;;;;;22.66;27.55;99481.25;4413922;32;33191;-80
2023/05/11 11:40:48;;;;;;;;;;;;;;;22.09;27.98;99483.16;4422581;32;33470;-82
2023/05/11 11:43:20;;;;;;;;;;;;;;;22.66;27.42;99483.91;4421266;32;35078;-82
2023/05/11 11:45:52;;;;;;;;;;;;;;;22.63;28.11;99482.31;4423145;32;34413;-81
2023/05/11 11:48:23;;;;;;;;;;;;;;;23.02;27.26;99477.13;4417622;32;33204;-81
2023/05/11 11:51:01;;;;;;;;;;;;;;;23.98;26.76;99464.25;4414633;32;34170;-81
2023/05/11 11:54:03;;;;;;;;;;;;;;;24.06;26.26;99469.81;4419493;32;34739;-80
2023/05/11 11:56:43;;;;;;;;;;;;;;;24.47;25.63;99477.41;4420827;32;34365;-81
2023/05/11 11:59:15;;;;;;;;;;;;;;;23.53;25.79;99467.37;4414856;32;34166;-81
2023/05/11 12:01:46;;;;;;;;;;;;;;;24.13;26.55;99464.91;4419459;32;34801;-81
2023/05/11 12:04:31;;;;;;;;;;;;;;;24.04;26.57;99472.59;4415041;32;35041;-80
2023/05/11 12:07:00;;;;;;;;;;;;;;;24.84;26.43;99471.16;4425077;32;34827;-81
2023/05/11 12:10:05;;;;;;;;;;;;;;;23.63;25.92;99468.44;4475088;31;802112;-79
2023/05/11 12:12:37;;;;;;;;;;;;;;;23.50;25.71;99458.81;4480341;32;33640;-80
2023/05/11 12:15:07;;;;;;;;;;;;;;;23.94;25.25;99458.28;4474838;32;34750;-79
2023/05/11 12:17:37;;;;;;;;;;;;;;;23.59;26.81;99453.72;4487035;32;34452;-80
2023/05/11 12:20:12;;;;;;;;;;;;;;;24.00;25.38;99462.34;4487453;32;32922;-79
2023/05/11 12:22:41;;;;;;;;;;;;;;;24.67;24.62;99459.19;4479418;32;33983;-77
2023/05/11 12:25:14;;;;;;;;;;;;;;;25.23;24.96;99439.91;4469133;32;34328;-80
2023/05/11 12:27:47;;;;;;;;;;;;;;;24.76;24.66;99453.16;4470957;32;34966;-79
2023/05/11 12:30:22;;;;;;;;;;;;;;;24.46;24.25;99453.69;4471420;32;33798;-78
2023/05/11 12:32:50;;;;;;;;;;;;;;;24.25;24.37;99458.72;4472155;32;33074;-79
2023/05/11 12:35:24;;;;;;;;;;;;;;;24.19;24.57;99449.44;4479420;32;34033;-78
2023/05/11 12:37:53;;;;;;;;;;;;;;;24.49;24.71;99441.00;4479906;32;33754;-78
2023/05/11 12:40:23;;;;;;;;;;;;;;;25.36;24.94;99435.31;4471712;32;33778;-78
2023/05/11 12:42:51;;;;;;;;;;;;;;;24.86;24.47;99445.34;4473654;31;34017;-79
2023/05/11 12:45:21;;;;;;;;;;;;;;;24.04;24.43;99430.19;4478668;32;34172;-78
2023/05/11 12:47:50;;;;;;;;;;;;;;;23.82;24.73;99432.69;4471744;32;33648;-79
2023/05/11 12:50:18;;;;;;;;;;;;;;;24.75;23.96;99430.25;4465373;32;33451;-78
2023/05/11 12:52:47;;;;;;;;;;;;;;;24.59;24.58;99427.91;4456772;32;32998;-79
2023/05/11 12:55:27;;;;;;;;;;;;;;;25.15;24.64;99421.84;4480472;32;34979;-79
2023/05/11 12:58:06;;;;;;;;;;;;;;;24.71;24.26;99431.44;4476381;32;34137;-78
2023/05/11 13:00:35;;;;;;;;;;;;;;;25.21;23.81;99412.63;4477905;32;33388;-79
2023/05/11 13:03:06;;;;;;;;;;;;;;;24.64;25.38;99411.66;4472001;32;33060;-78
2023/05/11 13:05:36;;;;;;;;;;;;;;;23.41;25.76;99402.03;4485779;32;33622;-79